sensor_id;sensor_type;location;lat;lon;timestamp;pressure;altitude;pressure_sealevel;temperature;humidity
77706;BME280;66874;45.274;5.880;2023-02-27T00:01:55;97994.13;;;0.72;66.17
77706;BME280;66874;45.274;5.880;2023-02-27T00:04:21;98003.59;;;0.76;66.18
77706;BME280;66874;45.274;5.880;2023-02-27T00:06:46;98008.75;;;0.75;66.20
77706;BME280;66874;45.274;5.880;2023-02-27T00:09:12;98004.47;;;0.73;66.27
77706;BME280;66874;45.274;5.880;2023-02-27T00:11:37;98009.59;;;0.73;66.23
77706;BME280;66874;45.274;5.880;2023-02-27T00:14:03;98012.19;;;0.73;66.08
77706;BME280;66874;45.274;5.880;2023-02-27T00:16:28;98004.47;;;0.73;66.47
77706;BME280;66874;45.274;5.880;2023-02-27T00:18:54;98010.44;;;0.76;66.09
77706;BME280;66874;45.274;5.880;2023-02-27T00:21:21;98019.88;;;0.72;66.49
77706;BME280;66874;45.274;5.880;2023-02-27T00:23:47;98022.44;;;0.69;66.53
77706;BME280;66874;45.274;5.880;2023-02-27T00:26:12;98025.88;;;0.68;66.56
77706;BME280;66874;45.274;5.880;2023-02-27T00:28:38;98029.31;;;0.68;66.52
77706;BME280;66874;45.274;5.880;2023-02-27T03:02:13;98140.00;;;0.65;67.74
77706;BME280;66874;45.274;5.880;2023-02-27T03:04:41;98140.81;;;0.64;67.88
77706;BME280;66874;45.274;5.880;2023-02-27T03:07:13;98145.97;;;0.64;67.96
77706;BME280;66874;45.274;5.880;2023-02-27T03:09:50;98153.69;;;0.63;67.88
77706;BME280;66874;45.274;5.880;2023-02-27T03:12:18;98151.97;;;0.63;67.99
77706;BME280;66874;45.274;5.880;2023-02-27T03:14:55;98155.41;;;0.64;67.78
77706;BME280;66874;45.274;5.880;2023-02-27T03:17:32;98162.25;;;0.63;67.83
77706;BME280;66874;45.274;5.880;2023-02-27T03:20:06;98164.84;;;0.62;67.92
77706;BME280;66874;45.274;5.880;2023-02-27T03:22:42;98163.97;;;0.61;67.79
77706;BME280;66874;45.274;5.880;2023-02-27T03:25:11;98164.81;;;0.60;67.95
77706;BME280;66874;45.274;5.880;2023-02-27T03:27:50;98176.81;;;0.61;67.81
77706;BME280;66874;45.274;5.880;2023-02-27T06:30:55;98392.56;;;0.17;69.00
77706;BME280;66874;45.274;5.880;2023-02-27T06:33:22;98406.25;;;0.14;69.26
77706;BME280;66874;45.274;5.880;2023-02-27T06:35:48;98405.38;;;0.14;69.21
77706;BME280;66874;45.274;5.880;2023-02-27T06:38:14;98411.34;;;0.11;69.47
77706;BME280;66874;45.274;5.880;2023-02-27T06:40:39;98423.31;;;0.08;69.48
77706;BME280;66874;45.274;5.880;2023-02-27T06:43:05;98430.16;;;0.06;69.42
77706;BME280;66874;45.274;5.880;2023-02-27T06:45:30;98435.28;;;0.04;69.42
77706;BME280;66874;45.274;5.880;2023-02-27T06:47:55;98442.09;;;0.04;69.45
77706;BME280;66874;45.274;5.880;2023-02-27T06:50:21;98444.69;;;0.02;69.57
77706;BME280;66874;45.274;5.880;2023-02-27T06:52:46;98447.28;;;0.05;69.51
77706;BME280;66874;45.274;5.880;2023-02-27T06:55:12;98457.63;;;0.08;69.50
77706;BME280;66874;45.274;5.880;2023-02-27T06:57:37;98461.91;;;0.11;69.43
77706;BME280;66874;45.274;5.880;2023-02-27T07:00:04;98461.06;;;0.10;69.59
77706;BME280;66874;45.274;5.880;2023-02-27T07:02:31;98474.81;;;0.12;69.50
77706;BME280;66874;45.274;5.880;2023-02-27T07:04:56;98477.41;;;0.15;69.25
77706;BME280;66874;45.274;5.880;2023-02-27T07:07:22;98488.63;;;0.20;69.49
77706;BME280;66874;45.274;5.880;2023-02-27T07:09:47;98489.53;;;0.26;69.37
77706;BME280;66874;45.274;5.880;2023-02-27T07:12:13;98497.31;;;0.30;69.46
77706;BME280;66874;45.274;5.880;2023-02-27T07:14:38;98488.81;;;0.36;69.25
77706;BME280;66874;45.274;5.880;2023-02-27T07:17:04;98498.31;;;0.41;69.28
77706;BME280;66874;45.274;5.880;2023-02-27T07:19:32;98512.13;;;0.46;69.39
77706;BME280;66874;45.274;5.880;2023-02-27T07:22:00;98519.91;;;0.53;69.37
77706;BME280;66874;45.274;5.880;2023-02-27T07:24:25;98515.69;;;0.58;69.19
77706;BME280;66874;45.274;5.880;2023-02-27T07:26:50;98525.19;;;0.65;69.49
77706;BME280;66874;45.274;5.880;2023-02-27T07:29:16;98513.25;;;0.70;69.45
77706;BME280;66874;45.274;5.880;2023-02-27T07:31:41;98519.28;;;0.73;69.26
77706;BME280;66874;45.274;5.880;2023-02-27T07:34:07;98521.06;;;0.78;69.39
77706;BME280;66874;45.274;5.880;2023-02-27T07:36:36;98528.78;;;0.79;69.27
77706;BME280;66874;45.274;5.880;2023-02-27T07:39:01;98535.69;;;0.83;69.37
77706;BME280;66874;45.274;5.880;2023-02-27T07:41:27;98535.72;;;0.86;69.38
77706;BME280;66874;45.274;5.880;2023-02-27T07:43:53;98537.50;;;0.90;69.34
77706;BME280;66874;45.274;5.880;2023-02-27T07:46:18;98544.44;;;0.97;69.47
77706;BME280;66874;45.274;5.880;2023-02-27T07:48:44;98546.19;;;1.03;69.46
77706;BME280;66874;45.274;5.880;2023-02-27T07:51:10;98537.72;;;1.12;69.30
77706;BME280;66874;45.274;5.880;2023-02-27T07:53:35;98544.63;;;1.19;69.13
77706;BME280;66874;45.274;5.880;2023-02-27T07:56:00;98549.03;;;1.28;69.16
77706;BME280;66874;45.274;5.880;2023-02-27T07:58:26;98550.75;;;1.30;68.95
77706;BME280;66874;45.274;5.880;2023-02-27T08:00:52;98551.66;;;1.34;69.01
77706;BME280;66874;45.274;5.880;2023-02-27T08:03:18;98549.97;;;1.37;69.12
77706;BME280;66874;45.274;5.880;2023-02-27T08:05:43;98561.22;;;1.44;68.83
77706;BME280;66874;45.274;5.880;2023-02-27T08:08:09;98567.28;;;1.52;68.75
77706;BME280;66874;45.274;5.880;2023-02-27T08:10:34;98562.22;;;1.63;68.63
77706;BME280;66874;45.274;5.880;2023-02-27T08:12:59;98569.16;;;1.68;68.69
77706;BME280;66874;45.274;5.880;2023-02-27T08:15:25;98572.66;;;1.77;68.51
77706;BME280;66874;45.274;5.880;2023-02-27T08:17:50;98576.16;;;1.88;68.49
77706;BME280;66874;45.274;5.880;2023-02-27T08:20:16;98579.66;;;1.94;68.37
77706;BME280;66874;45.274;5.880;2023-02-27T08:22:41;98576.25;;;1.97;68.30
77706;BME280;66874;45.274;5.880;2023-02-27T08:25:08;98578.88;;;2.00;68.29
77706;BME280;66874;45.274;5.880;2023-02-27T08:27:36;98589.25;;;2.08;68.24
77706;BME280;66874;45.274;5.880;2023-02-27T08:30:03;98592.72;;;2.17;68.25
77706;BME280;66874;45.274;5.880;2023-02-27T08:32:29;98596.25;;;2.27;68.15
77706;BME280;66874;45.274;5.880;2023-02-27T08:34:55;98595.41;;;2.34;68.00
77706;BME280;66874;45.274;5.880;2023-02-27T08:37:20;98604.94;;;2.43;68.00
77706;BME280;66874;45.274;5.880;2023-02-27T08:39:46;98603.25;;;2.47;67.69
77706;BME280;66874;45.274;5.880;2023-02-27T08:42:11;98613.59;;;2.53;67.83
77706;BME280;66874;45.274;5.880;2023-02-27T08:44:37;98602.41;;;2.57;67.54
77706;BME280;66874;45.274;5.880;2023-02-27T08:47:02;98603.31;;;2.63;67.64
77706;BME280;66874;45.274;5.880;2023-02-27T08:49:28;98602.50;;;2.72;67.38
77706;BME280;66874;45.274;5.880;2023-02-27T08:51:53;98606.88;;;2.82;67.53
77706;BME280;66874;45.274;5.880;2023-02-27T08:54:19;98606.91;;;2.90;67.30
77706;BME280;66874;45.274;5.880;2023-02-27T08:56:45;98607.81;;;3.01;66.97
77706;BME280;66874;45.274;5.880;2023-02-27T08:59:11;98606.09;;;3.08;66.89
77706;BME280;66874;45.274;5.880;2023-02-27T09:01:37;98607.81;;;3.15;66.54
77706;BME280;66874;45.274;5.880;2023-02-27T09:04:03;98616.47;;;3.18;66.50
77706;BME280;66874;45.274;5.880;2023-02-27T09:06:29;98613.06;;;3.27;66.43
77706;BME280;66874;45.274;5.880;2023-02-27T09:09:11;98613.94;;;3.35;66.10
77706;BME280;66874;45.274;5.880;2023-02-27T09:11:37;98620.88;;;3.50;65.91
77706;BME280;66874;45.274;5.880;2023-02-27T09:14:02;98620.88;;;3.62;65.49
77706;BME280;66874;45.274;5.880;2023-02-27T09:16:28;98622.63;;;3.70;65.43
77706;BME280;66874;45.274;5.880;2023-02-27T09:18:54;98624.34;;;3.71;64.90
77706;BME280;66874;45.274;5.880;2023-02-27T09:21:19;98626.06;;;3.76;64.92
77706;BME280;66874;45.274;5.880;2023-02-27T09:23:45;98627.78;;;3.79;64.47
77706;BME280;66874;45.274;5.880;2023-02-27T09:26:10;98632.13;;;3.86;64.54
77706;BME280;66874;45.274;5.880;2023-02-27T09:28:36;98628.66;;;3.91;64.23
77706;BME280;66874;45.274;5.880;2023-02-27T09:31:03;98632.97;;;3.99;63.94
77706;BME280;66874;45.274;5.880;2023-02-27T09:33:33;98640.75;;;4.05;63.94
77706;BME280;66874;45.274;5.880;2023-02-27T09:35:59;98648.50;;;4.11;63.53
77706;BME280;66874;45.274;5.880;2023-02-27T09:38:25;98650.25;;;4.16;63.05
77706;BME280;66874;45.274;5.880;2023-02-27T09:40:52;98650.22;;;4.18;62.99
77706;BME280;66874;45.274;5.880;2023-02-27T09:43:45;98660.59;;;4.24;62.65
77706;BME280;66874;45.274;5.880;2023-02-27T09:46:18;98664.91;;;4.36;62.47
77706;BME280;66874;45.274;5.880;2023-02-27T09:48:58;98659.72;;;4.48;62.18
77706;BME280;66874;45.274;5.880;2023-02-27T09:51:24;98662.28;;;4.60;61.99
77706;BME280;66874;45.274;5.880;2023-02-27T09:53:56;98669.19;;;4.69;61.75
77706;BME280;66874;45.274;5.880;2023-02-27T09:56:36;98669.16;;;4.72;61.43
77706;BME280;66874;45.274;5.880;2023-02-27T10:04:29;98684.72;;;4.69;60.64
77706;BME280;66874;45.274;5.880;2023-02-27T10:15:08;98706.31;;;4.70;60.41
77706;BME280;66874;45.274;5.880;2023-02-27T10:17:45;98705.44;;;4.71;60.03
77706;BME280;66874;45.274;5.880;2023-02-27T10:20:45;98712.34;;;4.81;60.04
77706;BME280;66874;45.274;5.880;2023-02-27T10:23:14;98709.69;;;4.99;59.90
77706;BME280;66874;45.274;5.880;2023-02-27T10:25:45;98710.56;;;5.07;59.51
77706;BME280;66874;45.274;5.880;2023-02-27T10:28:14;98701.84;;;5.27;59.39
77706;BME280;66874;45.274;5.880;2023-02-27T10:30:43;98708.69;;;5.42;59.02
77706;BME280;66874;45.274;5.880;2023-02-27T10:33:28;98712.06;;;5.65;58.51
77706;BME280;66874;45.274;5.880;2023-02-27T10:35:56;98719.78;;;5.77;58.03
77706;BME280;66874;45.274;5.880;2023-02-27T10:38:28;98721.53;;;5.74;57.31
77706;BME280;66874;45.274;5.880;2023-02-27T10:40:56;98714.59;;;5.71;56.90
77706;BME280;66874;45.274;5.880;2023-02-27T10:43:23;98711.09;;;5.81;56.64
77706;BME280;66874;45.274;5.880;2023-02-27T10:45:48;98714.47;;;6.02;56.23
77706;BME280;66874;45.274;5.880;2023-02-27T10:48:14;98711.47;;;6.55;55.99
77706;BME280;66874;45.274;5.880;2023-02-27T10:50:45;98707.44;;;7.10;55.31
77706;BME280;66874;45.274;5.880;2023-02-27T10:53:22;98702.03;;;7.28;54.89
77706;BME280;66874;45.274;5.880;2023-02-27T10:56:03;98702.81;;;7.38;54.56
77706;BME280;66874;45.274;5.880;2023-02-27T10:58:33;98712.22;;;7.47;54.65
77706;BME280;66874;45.274;5.880;2023-02-27T11:01:03;98710.50;;;7.47;54.40
77706;BME280;66874;45.274;5.880;2023-02-27T11:03:38;98709.78;;;7.33;54.07
77706;BME280;66874;45.274;5.880;2023-02-27T11:06:22;98711.69;;;7.20;53.89
77706;BME280;66874;45.274;5.880;2023-02-27T11:09:26;98710.03;;;7.13;53.55
77706;BME280;66874;45.274;5.880;2023-02-27T11:11:52;98707.59;;;6.95;53.91
77706;BME280;66874;45.274;5.880;2023-02-27T11:16:53;98704.91;;;7.05;53.38
77706;BME280;66874;45.274;5.880;2023-02-27T11:22:33;98714.34;;;7.14;53.32
77706;BME280;66874;45.274;5.880;2023-02-27T11:25:15;98713.38;;;7.24;53.07
77706;BME280;66874;45.274;5.880;2023-02-27T11:27:41;98706.41;;;7.25;52.71
77706;BME280;66874;45.274;5.880;2023-02-27T11:30:26;98706.50;;;7.19;52.80
77706;BME280;66874;45.274;5.880;2023-02-27T11:32:54;98709.91;;;7.24;52.75
77706;BME280;66874;45.274;5.880;2023-02-27T11:37:50;98709.22;;;7.06;52.42
77706;BME280;66874;45.274;5.880;2023-02-27T11:40:18;98708.38;;;7.07;52.28
77706;BME280;66874;45.274;5.880;2023-02-27T11:42:49;98693.53;;;7.14;52.35
77706;BME280;66874;45.274;5.880;2023-02-27T11:47:52;98696.28;;;7.02;51.86
77706;BME280;66874;45.274;5.880;2023-02-27T11:53:43;98686.41;;;7.31;51.61
77706;BME280;66874;45.274;5.880;2023-02-27T11:56:21;98681.97;;;7.40;51.62
77706;BME280;66874;45.274;5.880;2023-02-27T11:59:07;98682.09;;;7.30;50.74
77706;BME280;66874;45.274;5.880;2023-02-27T12:01:46;98688.22;;;7.25;51.31
77706;BME280;66874;45.274;5.880;2023-02-27T12:07:05;98674.28;;;7.30;51.16
77706;BME280;66874;45.274;5.880;2023-02-27T12:09:42;98681.06;;;7.41;50.99
77706;BME280;66874;45.274;5.880;2023-02-27T12:12:21;98675.84;;;7.44;50.83
77706;BME280;66874;45.274;5.880;2023-02-27T12:14:56;98674.69;;;7.65;50.61
77706;BME280;66874;45.274;5.880;2023-02-27T12:17:46;98669.38;;;7.72;50.06
77706;BME280;66874;45.274;5.880;2023-02-27T12:20:28;98675.59;;;7.62;49.94
77706;BME280;66874;45.274;5.880;2023-02-27T12:22:55;98685.25;;;7.54;49.47
77706;BME280;66874;45.274;5.880;2023-02-27T12:25:45;98678.53;;;7.36;49.69
77706;BME280;66874;45.274;5.880;2023-02-27T12:36:23;98672.28;;;8.11;49.18
77706;BME280;66874;45.274;5.880;2023-02-27T12:38:48;98669.31;;;8.34;48.99
77706;BME280;66874;45.274;5.880;2023-02-27T12:41:40;98668.84;;;8.63;48.41
77706;BME280;66874;45.274;5.880;2023-02-27T12:44:27;98666.53;;;8.94;48.19
77706;BME280;66874;45.274;5.880;2023-02-27T12:47:29;98670.97;;;8.88;47.40
77706;BME280;66874;45.274;5.880;2023-02-27T12:50:22;98671.69;;;8.49;47.37
77706;BME280;66874;45.274;5.880;2023-02-27T12:56:00;98677.44;;;8.68;46.17
77706;BME280;66874;45.274;5.880;2023-02-27T13:04:03;98659.25;;;9.92;45.76
77706;BME280;66874;45.274;5.880;2023-02-27T13:06:39;98651.88;;;10.80;45.36
77706;BME280;66874;45.274;5.880;2023-02-27T13:09:21;98646.88;;;11.34;44.27
77706;BME280;66874;45.274;5.880;2023-02-27T13:17:19;98646.31;;;10.25;43.95
77706;BME280;66874;45.274;5.880;2023-02-27T13:25:24;98632.56;;;11.46;42.81
77706;BME280;66874;45.274;5.880;2023-02-27T13:27:57;98631.88;;;11.39;42.00
77706;BME280;66874;45.274;5.880;2023-02-27T13:30:29;98624.56;;;11.80;42.65
77706;BME280;66874;45.274;5.880;2023-02-27T13:38:53;98610.50;;;14.46;39.34
77706;BME280;66874;45.274;5.880;2023-02-27T13:43:48;98601.97;;;15.21;37.95
77706;BME280;66874;45.274;5.880;2023-02-27T13:46:33;98607.47;;;15.35;36.98
77706;BME280;66874;45.274;5.880;2023-02-27T13:59:29;98590.28;;;16.02;34.22
77706;BME280;66874;45.274;5.880;2023-02-27T14:04:56;98595.91;;;16.30;34.30
77706;BME280;66874;45.274;5.880;2023-02-27T14:07:27;98589.88;;;15.54;34.05
77706;BME280;66874;45.274;5.880;2023-02-27T14:10:09;98602.94;;;14.38;35.19
77706;BME280;66874;45.274;5.880;2023-02-27T14:12:40;98597.81;;;14.13;35.88
77706;BME280;66874;45.274;5.880;2023-02-27T14:17:46;98611.34;;;13.82;35.69
77706;BME280;66874;45.274;5.880;2023-02-27T14:25:46;98612.88;;;13.65;36.54
77706;BME280;66874;45.274;5.880;2023-02-27T14:31:00;98613.28;;;13.55;35.71
77706;BME280;66874;45.274;5.880;2023-02-27T14:33:47;98613.31;;;13.31;36.22
77706;BME280;66874;45.274;5.880;2023-02-27T14:36:20;98605.03;;;12.93;37.08
77706;BME280;66874;45.274;5.880;2023-02-27T14:38:47;98609.94;;;13.03;36.51
77706;BME280;66874;45.274;5.880;2023-02-27T14:41:35;98599.50;;;13.01;37.11
77706;BME280;66874;45.274;5.880;2023-02-27T14:44:03;98604.13;;;13.18;36.91
77706;BME280;66874;45.274;5.880;2023-02-27T14:46:37;98599.84;;;13.15;36.91
77706;BME280;66874;45.274;5.880;2023-02-27T14:49:06;98592.25;;;13.55;37.14
77706;BME280;66874;45.274;5.880;2023-02-27T14:51:40;98590.50;;;14.41;36.55
77706;BME280;66874;45.274;5.880;2023-02-27T14:54:11;98586.78;;;14.68;35.94
77706;BME280;66874;45.274;5.880;2023-02-27T14:56:38;98582.81;;;14.78;35.84
77706;BME280;66874;45.274;5.880;2023-02-27T14:59:21;98575.38;;;15.27;35.08
77706;BME280;66874;45.274;5.880;2023-02-27T15:01:46;98573.25;;;14.96;34.91
77706;BME280;66874;45.274;5.880;2023-02-27T15:04:16;98566.69;;;14.85;35.67
77706;BME280;66874;45.274;5.880;2023-02-27T15:06:45;98563.03;;;15.46;35.65
77706;BME280;66874;45.274;5.880;2023-02-27T15:09:23;98561.66;;;16.11;34.93
77706;BME280;66874;45.274;5.880;2023-02-27T15:11:53;98557.72;;;16.20;34.44
77706;BME280;66874;45.274;5.880;2023-02-27T15:14:26;98556.19;;;16.33;34.16
77706;BME280;66874;45.274;5.880;2023-02-27T15:16:55;98559.03;;;16.11;34.19
77706;BME280;66874;45.274;5.880;2023-02-27T15:19:23;98551.03;;;16.30;34.07
77706;BME280;66874;45.274;5.880;2023-02-27T15:21:51;98555.63;;;16.27;33.61
77706;BME280;66874;45.274;5.880;2023-02-27T15:26:53;98558.44;;;16.76;33.52
77706;BME280;66874;45.274;5.880;2023-02-27T15:29:22;98553.66;;;16.48;32.96
77706;BME280;66874;45.274;5.880;2023-02-27T15:31:48;98558.13;;;16.30;32.76
77706;BME280;66874;45.274;5.880;2023-02-27T15:34:14;98554.50;;;16.14;32.56
77706;BME280;66874;45.274;5.880;2023-02-27T15:36:50;98557.53;;;15.89;32.27
77706;BME280;66874;45.274;5.880;2023-02-27T15:39:19;98557.09;;;15.60;32.55
77706;BME280;66874;45.274;5.880;2023-02-27T15:41:51;98561.97;;;15.50;32.53
77706;BME280;66874;45.274;5.880;2023-02-27T15:44:23;98561.97;;;15.12;32.32
77706;BME280;66874;45.274;5.880;2023-02-27T15:46:51;98569.59;;;14.38;32.61
77706;BME280;66874;45.274;5.880;2023-02-27T15:49:20;98569.41;;;13.57;33.45
77706;BME280;66874;45.274;5.880;2023-02-27T15:51:48;98582.81;;;12.79;33.57
77706;BME280;66874;45.274;5.880;2023-02-27T15:54:19;98575.31;;;12.43;34.44
77706;BME280;66874;45.274;5.880;2023-02-27T15:56:45;98583.69;;;12.54;34.27
77706;BME280;66874;45.274;5.880;2023-02-27T15:59:14;98581.84;;;12.56;34.20
77706;BME280;66874;45.274;5.880;2023-02-27T16:01:41;98580.53;;;12.69;34.33
77706;BME280;66874;45.274;5.880;2023-02-27T16:04:17;98584.19;;;12.64;34.12
77706;BME280;66874;45.274;5.880;2023-02-27T16:06:47;98585.75;;;12.69;34.43
77706;BME280;66874;45.274;5.880;2023-02-27T16:09:33;98593.19;;;12.57;34.41
77706;BME280;66874;45.274;5.880;2023-02-27T16:12:33;98595.91;;;12.29;34.33
77706;BME280;66874;45.274;5.880;2023-02-27T16:18:02;98609.34;;;11.63;35.05
77706;BME280;66874;45.274;5.880;2023-02-27T16:25:36;98618.97;;;10.71;35.76
77706;BME280;66874;45.274;5.880;2023-02-27T16:28:02;98626.25;;;10.60;36.40
77706;BME280;66874;45.274;5.880;2023-02-27T16:30:27;98631.59;;;10.55;36.56
77706;BME280;66874;45.274;5.880;2023-02-27T16:32:58;98634.75;;;10.34;36.74
77706;BME280;66874;45.274;5.880;2023-02-27T16:35:25;98636.63;;;9.91;36.85
77706;BME280;66874;45.274;5.880;2023-02-27T16:37:51;98647.00;;;9.57;37.47
77706;BME280;66874;45.274;5.880;2023-02-27T16:40:22;98652.50;;;9.43;37.55
77706;BME280;66874;45.274;5.880;2023-02-27T16:42:49;98658.63;;;9.41;37.99
77706;BME280;66874;45.274;5.880;2023-02-27T16:45:23;98664.59;;;9.47;38.07
77706;BME280;66874;45.274;5.880;2023-02-27T16:47:51;98677.06;;;9.33;38.10
77706;BME280;66874;45.274;5.880;2023-02-27T16:52:56;98676.56;;;9.16;38.53
77706;BME280;66874;45.274;5.880;2023-02-27T16:55:23;98689.75;;;9.07;38.83
77706;BME280;66874;45.274;5.880;2023-02-27T16:57:48;98690.31;;;8.77;39.13
77706;BME280;66874;45.274;5.880;2023-02-27T17:00:15;98682.91;;;8.54;39.27
77706;BME280;66874;45.274;5.880;2023-02-27T17:02:41;98692.69;;;8.40;39.35
77706;BME280;66874;45.274;5.880;2023-02-27T17:05:07;98689.41;;;8.27;39.67
77706;BME280;66874;45.274;5.880;2023-02-27T17:07:33;98706.94;;;8.16;39.99
77706;BME280;66874;45.274;5.880;2023-02-27T17:09:58;98709.63;;;8.10;40.10
77706;BME280;66874;45.274;5.880;2023-02-27T17:12:24;98715.09;;;7.93;39.94
77706;BME280;66874;45.274;5.880;2023-02-27T17:14:50;98717.13;;;7.73;40.42
77706;BME280;66874;45.274;5.880;2023-02-27T17:17:15;98719.81;;;7.64;40.63
77706;BME280;66874;45.274;5.880;2023-02-27T17:19:41;98724.28;;;7.54;40.65
77706;BME280;66874;45.274;5.880;2023-02-27T17:22:06;98721.84;;;7.40;41.00
77706;BME280;66874;45.274;5.880;2023-02-27T17:24:32;98727.09;;;7.34;40.94
77706;BME280;66874;45.274;5.880;2023-02-27T17:26:58;98730.56;;;7.36;41.14
77706;BME280;66874;45.274;5.880;2023-02-27T17:29:23;98732.25;;;7.40;41.32
77706;BME280;66874;45.274;5.880;2023-02-27T17:31:49;98745.22;;;7.46;41.37
77706;BME280;66874;45.274;5.880;2023-02-27T17:34:15;98749.56;;;7.46;41.31
77706;BME280;66874;45.274;5.880;2023-02-27T17:36:41;98752.16;;;7.44;41.39
77706;BME280;66874;45.274;5.880;2023-02-27T17:39:08;98759.22;;;7.34;41.51
77706;BME280;66874;45.274;5.880;2023-02-27T17:41:35;98760.19;;;7.24;41.92
77706;BME280;66874;45.274;5.880;2023-02-27T17:44:01;98769.78;;;7.18;41.93
77706;BME280;66874;45.274;5.880;2023-02-27T17:46:30;98762.06;;;7.10;42.07
77706;BME280;66874;45.274;5.880;2023-02-27T17:48:56;98770.84;;;6.98;42.22
77706;BME280;66874;45.274;5.880;2023-02-27T17:51:25;98777.00;;;6.90;42.29
77706;BME280;66874;45.274;5.880;2023-02-27T17:53:51;98781.41;;;6.84;42.28
77706;BME280;66874;45.274;5.880;2023-02-27T17:56:17;98796.16;;;6.79;42.42
77706;BME280;66874;45.274;5.880;2023-02-27T17:58:42;98797.94;;;6.74;42.63
77706;BME280;66874;45.274;5.880;2023-02-27T18:01:16;98797.97;;;6.71;42.92
77706;BME280;66874;45.274;5.880;2023-02-27T18:03:44;98796.31;;;6.63;42.85
77706;BME280;66874;45.274;5.880;2023-02-27T18:06:10;98804.13;;;6.59;43.07
77706;BME280;66874;45.274;5.880;2023-02-27T18:08:36;98811.94;;;6.58;43.25
77706;BME280;66874;45.274;5.880;2023-02-27T18:11:02;98812.81;;;6.55;43.31
77706;BME280;66874;45.274;5.880;2023-02-27T18:13:28;98822.34;;;6.52;43.50
77706;BME280;66874;45.274;5.880;2023-02-27T18:15:54;98820.66;;;6.48;43.55
77706;BME280;66874;45.274;5.880;2023-02-27T18:18:20;98817.22;;;6.41;43.70
77706;BME280;66874;45.274;5.880;2023-02-27T18:20:46;98825.09;;;6.32;43.86
77706;BME280;66874;45.274;5.880;2023-02-27T18:23:12;98821.66;;;6.28;43.98
77706;BME280;66874;45.274;5.880;2023-02-27T18:25:38;98830.34;;;6.21;44.14
77706;BME280;66874;45.274;5.880;2023-02-27T18:28:04;98827.81;;;6.12;44.20
77706;BME280;66874;45.274;5.880;2023-02-27T18:30:31;98835.66;;;6.00;44.32
77706;BME280;66874;45.274;5.880;2023-02-27T18:32:59;98836.53;;;5.93;44.50
77706;BME280;66874;45.274;5.880;2023-02-27T18:35:25;98840.88;;;5.92;44.70
77706;BME280;66874;45.274;5.880;2023-02-27T18:37:51;98837.41;;;5.85;44.80
77706;BME280;66874;45.274;5.880;2023-02-27T18:40:16;98846.97;;;5.74;45.14
77706;BME280;66874;45.274;5.880;2023-02-27T18:42:42;98846.97;;;5.71;45.03
77706;BME280;66874;45.274;5.880;2023-02-27T18:45:10;98846.97;;;5.68;45.08
77706;BME280;66874;45.274;5.880;2023-02-27T18:47:36;98851.31;;;5.68;45.09
77706;BME280;66874;45.274;5.880;2023-02-27T18:50:01;98847.81;;;5.69;45.02
77706;BME280;66874;45.274;5.880;2023-02-27T18:52:26;98850.41;;;5.69;45.17
77706;BME280;66874;45.274;5.880;2023-02-27T18:54:53;98851.31;;;5.69;45.11
77706;BME280;66874;45.274;5.880;2023-02-27T18:57:19;98853.03;;;5.64;45.42
77706;BME280;66874;45.274;5.880;2023-02-27T18:59:44;98853.06;;;5.53;45.16
77706;BME280;66874;45.274;5.880;2023-02-27T19:02:16;98858.28;;;5.39;45.30
77706;BME280;66874;45.274;5.880;2023-02-27T19:04:44;98857.44;;;5.31;45.45
77706;BME280;66874;45.274;5.880;2023-02-27T19:07:10;98854.00;;;5.25;45.49
77706;BME280;66874;45.274;5.880;2023-02-27T19:09:36;98867.81;;;5.14;45.54
77706;BME280;66874;45.274;5.880;2023-02-27T19:12:01;98856.59;;;5.06;45.72
77706;BME280;66874;45.274;5.880;2023-02-27T19:14:27;98865.25;;;4.98;45.80
77706;BME280;66874;45.274;5.880;2023-02-27T19:16:53;98866.09;;;4.95;45.63
77706;BME280;66874;45.274;5.880;2023-02-27T19:19:20;98866.94;;;4.88;45.92
77706;BME280;66874;45.274;5.880;2023-02-27T19:21:46;98860.91;;;4.75;46.25
77706;BME280;66874;45.274;5.880;2023-02-27T19:24:13;98868.66;;;4.68;46.35
77706;BME280;66874;45.274;5.880;2023-02-27T19:26:39;98875.59;;;4.67;46.31
77706;BME280;66874;45.274;5.880;2023-02-27T19:29:05;98874.69;;;4.65;46.35
77706;BME280;66874;45.274;5.880;2023-02-27T19:31:31;98883.34;;;4.61;46.43
77706;BME280;66874;45.274;5.880;2023-02-27T19:33:57;98885.06;;;4.56;46.53
77706;BME280;66874;45.274;5.880;2023-02-27T19:36:24;98891.97;;;4.55;46.55
77706;BME280;66874;45.274;5.880;2023-02-27T19:38:50;98882.47;;;4.53;46.60
77706;BME280;66874;45.274;5.880;2023-02-27T19:41:17;98889.38;;;4.48;46.65
77706;BME280;66874;45.274;5.880;2023-02-27T19:43:44;98885.91;;;4.43;46.78
77706;BME280;66874;45.274;5.880;2023-02-27T19:46:15;98894.53;;;4.35;47.08
77706;BME280;66874;45.274;5.880;2023-02-27T19:48:42;98889.34;;;4.31;47.20
77706;BME280;66874;45.274;5.880;2023-02-27T19:51:09;98896.22;;;4.27;47.42
77706;BME280;66874;45.274;5.880;2023-02-27T19:53:37;98898.78;;;4.23;47.45
77706;BME280;66874;45.274;5.880;2023-02-27T19:56:04;98897.91;;;4.18;47.60
77706;BME280;66874;45.274;5.880;2023-02-27T19:58:31;98904.78;;;4.12;47.62
77706;BME280;66874;45.274;5.880;2023-02-27T20:00:58;98897.88;;;4.08;47.73
77706;BME280;66874;45.274;5.880;2023-02-27T20:03:24;98895.28;;;4.04;47.73
77706;BME280;66874;45.274;5.880;2023-02-27T20:05:49;98907.31;;;3.99;48.04
77706;BME280;66874;45.274;5.880;2023-02-27T20:08:15;98907.28;;;3.94;47.86
77706;BME280;66874;45.274;5.880;2023-02-27T20:10:41;98909.00;;;3.90;48.19
77706;BME280;66874;45.274;5.880;2023-02-27T20:13:07;98913.28;;;3.87;48.37
77706;BME280;66874;45.274;5.880;2023-02-27T20:15:33;98921.91;;;3.86;48.31
77706;BME280;66874;45.274;5.880;2023-02-27T20:17:58;98922.75;;;3.83;48.56
77706;BME280;66874;45.274;5.880;2023-02-27T20:20:24;98936.50;;;3.76;48.51
77706;BME280;66874;45.274;5.880;2023-02-27T20:22:49;98930.47;;;3.71;48.60
77706;BME280;66874;45.274;5.880;2023-02-27T20:25:17;98945.09;;;3.67;48.82
77706;BME280;66874;45.274;5.880;2023-02-27T20:27:42;98949.38;;;3.62;49.04
77706;BME280;66874;45.274;5.880;2023-02-27T20:30:09;98941.59;;;3.58;48.94
77706;BME280;66874;45.274;5.880;2023-02-27T20:32:35;98947.59;;;3.54;49.05
77706;BME280;66874;45.274;5.880;2023-02-27T20:35:00;98955.34;;;3.51;49.02
77706;BME280;66874;45.274;5.880;2023-02-27T20:37:26;98952.72;;;3.48;49.08